Kansas City, Missouri
Traffic Map
Current Weather Conditions
Kansas City, Missouri
Clear
Clear
46°
Feels Like: 40°
Wind Chill: 40° Ceiling: Unl
Heat Index: 46° Visibility: 10mi
Dew Point: 29° Wind: 13mph
Humidity: 51% Direction: 220° (SW)
Pressure: 29.84in Gusts: 0mph
Raw Report DataKMKC 200354Z 22011KT 10SM CLR 08/M02 A2984 RMK AO2 SLP106 T00781017
Traffic Incident Summary
Active as of:
Severity:
Category:
InformationThere was an issue retrieving the traffic information for this location. Please try a different location or try again shortly.
Advertisements